Time;durP1;ratioP1;P1;durP2;ratioP2;P2;SDS_P1;SDS_P2;PMS_P1;PMS_P2;Temp;Humidity;BMP_temperature;BMP_pressure;BME280_temperature;BME280_humidity;BME280_pressure;Samples;Min_cycle;Max_cycle;Signal;HPM_P1;HPM_P2
2022/11/12 00:02:12;;;;;;;;;42.50;33.00;;;;;10.70;71.40;102680.03;5077468;28;46091;-76
2022/11/12 00:04:38;;;;;;;;;41.75;35.25;;;;;10.67;71.54;102669.63;5076659;28;68576;-76
2022/11/12 00:07:03;;;;;;;;;47.00;38.25;;;;;10.65;71.42;102667.88;5077019;27;54092;-77
2022/11/12 00:09:28;;;;;;;;;42.75;34.00;;;;;10.64;71.25;102666.16;5057858;28;72177;-76
2022/11/12 00:11:54;;;;;;;;;34.75;30.75;;;;;10.61;71.19;102679.16;5058350;28;64975;-76
2022/11/12 00:14:19;;;;;;;;;35.00;26.75;;;;;10.59;71.49;102683.50;5059002;28;50035;-76
2022/11/12 00:16:44;;;;;;;;;24.75;20.25;;;;;10.56;71.62;102670.47;5076242;27;69146;-76
2022/11/12 00:19:10;;;;;;;;;32.50;28.75;;;;;10.56;71.59;102683.50;5058662;28;54103;-77
2022/11/12 00:21:35;;;;;;;;;37.50;30.25;;;;;10.54;71.57;102681.75;5057666;28;61345;-77
2022/11/12 00:24:00;;;;;;;;;43.00;32.00;;;;;10.52;71.99;102671.34;5058500;28;45383;-76
2022/11/12 00:26:26;;;;;;;;;41.50;33.50;;;;;10.50;71.67;102670.47;5076677;28;55313;-77
2022/11/12 00:28:51;;;;;;;;;38.25;32.25;;;;;10.44;71.70;102681.72;5058006;28;71426;-77
2022/11/12 00:31:16;;;;;;;;;38.25;33.25;;;;;10.44;71.82;102676.53;5075911;27;73265;-76
2022/11/12 00:33:42;;;;;;;;;29.00;27.50;;;;;10.42;72.10;102680.00;5076180;28;69527;-76
2022/11/12 00:36:08;;;;;;;;;34.25;28.25;;;;;10.40;72.15;102682.59;5077157;28;45309;-76
2022/11/12 00:38:33;;;;;;;;;42.25;31.25;;;;;10.36;72.42;102675.63;5076102;28;47287;-76
2022/11/12 00:40:59;;;;;;;;;38.50;30.75;;;;;10.37;72.81;102674.78;5075798;28;69387;-77
2022/11/12 00:43:24;;;;;;;;;40.00;29.00;;;;;10.39;72.55;102683.44;5058697;28;45436;-77
2022/11/12 00:45:50;;;;;;;;;38.25;31.75;;;;;10.37;72.72;102668.69;5075892;28;70351;-76
2022/11/12 00:48:15;;;;;;;;;39.25;28.00;;;;;10.40;72.60;102682.59;5075608;27;71232;-76
2022/11/12 00:50:40;;;;;;;;;37.25;33.25;;;;;10.40;72.69;102673.91;5076192;28;58692;-76
2022/11/12 00:53:06;;;;;;;;;39.75;29.75;;;;;10.41;72.68;102667.84;5057467;28;65211;-76
2022/11/12 00:55:31;;;;;;;;;38.75;31.25;;;;;10.37;72.26;102669.56;5075935;28;65758;-76
2022/11/12 00:57:58;;;;;;;;;38.75;31.75;;;;;10.38;72.73;102667.81;5075644;28;72759;-76
2022/11/12 01:00:23;;;;;;;;;39.50;31.25;;;;;10.40;72.38;102666.97;5058422;28;45424;-77
2022/11/12 01:02:48;;;;;;;;;35.25;30.75;;;;;10.40;72.47;102668.69;5058665;28;45485;-77
2022/11/12 01:05:14;;;;;;;;;38.50;30.25;;;;;10.40;72.64;102671.28;5075789;28;65603;-77
2022/11/12 01:07:39;;;;;;;;;45.50;35.75;;;;;10.40;72.24;102660.88;5057834;28;46228;-77
2022/11/12 01:10:05;;;;;;;;;41.75;33.75;;;;;10.38;72.68;102662.59;5076368;28;45364;-76
2022/11/12 01:12:31;;;;;;;;;34.75;29.50;;;;;10.36;72.59;102664.34;5076500;28;45348;-76
2022/11/12 01:14:56;;;;;;;;;33.50;31.50;;;;;10.38;72.38;102666.09;5076423;28;45419;-77
2022/11/12 01:17:21;;;;;;;;;39.25;32.25;;;;;10.38;72.15;102668.72;5075307;27;70103;-76
2022/11/12 01:19:46;;;;;;;;;42.00;36.50;;;;;10.36;72.34;102662.59;5075179;28;73347;-76
2022/11/12 01:22:12;;;;;;;;;51.50;37.00;;;;;10.33;72.80;102653.94;5075065;28;69311;-79
2022/11/12 01:24:37;;;;;;;;;40.75;32.75;;;;;10.31;72.72;102656.53;5057359;28;66180;-76
2022/11/12 01:27:02;;;;;;;;;44.75;37.25;;;;;10.30;72.87;102654.75;5076195;27;45568;-76
2022/11/12 01:29:28;;;;;;;;;42.25;33.50;;;;;10.31;72.92;102661.75;5056949;28;72457;-76
2022/11/12 01:31:53;;;;;;;;;42.25;35.00;;;;;10.33;72.65;102654.81;5076237;28;45431;-78
2022/11/12 01:34:18;;;;;;;;;37.00;29.75;;;;;10.33;72.29;102651.34;5057959;28;45413;-78
2022/11/12 01:36:44;;;;;;;;;40.75;34.50;;;;;10.29;72.85;102645.22;5056508;28;75528;-79
2022/11/12 01:39:09;;;;;;;;;43.75;29.50;;;;;10.29;72.75;102647.81;5074683;28;72370;-78
2022/11/12 01:41:37;;;;;;;;;42.50;34.00;;;;;10.30;72.74;102652.16;5075100;28;64602;-78
2022/11/12 01:44:25;;;;;;;;;42.75;34.00;;;;;10.26;73.07;102647.81;5076157;28;45478;-76
2022/11/12 01:46:55;;;;;;;;;41.25;32.75;;;;;10.29;72.60;102650.44;5075805;28;46433;-76
2022/11/12 01:49:31;;;;;;;;;33.00;28.25;;;;;10.28;72.52;102641.72;5075832;27;45383;-76
2022/11/12 01:52:00;;;;;;;;;39.75;31.25;;;;;10.28;72.58;102631.31;5040769;28;45278;-76
2022/11/12 01:54:25;;;;;;;;;43.25;33.25;;;;;10.25;72.44;102636.53;5057809;28;45339;-76
2022/11/12 01:56:51;;;;;;;;;53.00;37.00;;;;;10.26;72.47;102626.97;5057598;28;45559;-76
2022/11/12 01:59:22;;;;;;;;;38.50;30.25;;;;;10.25;72.24;102633.94;5075731;28;45781;-76
2022/11/12 02:01:47;;;;;;;;;43.50;36.50;;;;;10.19;73.05;102631.28;5075986;28;45586;-76
2022/11/12 02:04:13;;;;;;;;;45.25;35.50;;;;;10.15;73.29;102634.75;5074769;28;69427;-76
2022/11/12 02:06:39;;;;;;;;;36.50;31.00;;;;;10.13;73.04;102627.81;5056185;28;75599;-78
2022/11/12 02:09:05;;;;;;;;;39.25;32.75;;;;;10.15;72.93;102621.75;5057339;28;45426;-76
2022/11/12 02:11:30;;;;;;;;;39.25;33.00;;;;;10.12;73.50;102616.53;5056664;28;69824;-76
2022/11/12 02:14:02;;;;;;;;;42.50;31.25;;;;;10.13;73.32;102623.47;5074688;28;68904;-76
2022/11/12 02:16:37;;;;;;;;;38.50;28.50;;;;;10.09;72.95;102626.94;5075322;27;46194;-76
2022/11/12 02:19:05;;;;;;;;;38.50;28.75;;;;;10.12;73.11;102633.88;5074392;28;45855;-79
2022/11/12 02:21:31;;;;;;;;;34.00;28.50;;;;;10.11;73.10;102642.56;5057125;27;45345;-76
2022/11/12 02:23:57;;;;;;;;;29.50;27.50;;;;;10.11;73.30;102648.63;5057563;28;45392;-78
2022/11/12 02:26:22;;;;;;;;;34.50;26.75;;;;;10.11;73.10;102639.97;5075456;28;46631;-79
2022/11/12 02:28:48;;;;;;;;;33.00;23.75;;;;;10.08;73.14;102638.19;5057122;27;45223;-78
2022/11/12 02:31:13;;;;;;;;;31.00;25.00;;;;;10.10;73.02;102641.66;5074615;28;69325;-76
2022/11/12 02:33:38;;;;;;;;;39.25;30.75;;;;;10.10;73.14;102651.22;5074321;28;70230;-78
2022/11/12 02:36:04;;;;;;;;;34.25;26.75;;;;;10.05;73.19;102633.88;5055898;28;72625;-78
2022/11/12 02:38:29;;;;;;;;;32.50;24.50;;;;;10.06;73.90;102627.78;5074994;28;45313;-76
2022/11/12 02:40:55;;;;;;;;;32.75;27.75;;;;;10.07;73.63;102633.88;5056446;28;54432;-76
2022/11/12 02:43:20;;;;;;;;;31.00;22.50;;;;;10.09;73.80;102629.53;5075338;27;45471;-76
2022/11/12 02:45:45;;;;;;;;;27.50;23.00;;;;;10.08;73.21;102618.28;5075526;28;71334;-78
2022/11/12 02:48:11;;;;;;;;;29.75;25.50;;;;;10.11;73.29;102624.34;5077058;27;49632;-76
2022/11/12 02:50:36;;;;;;;;;31.00;20.25;;;;;10.07;73.02;102611.31;5078012;28;51021;-76
2022/11/12 02:53:02;;;;;;;;;27.00;23.25;;;;;10.07;73.01;102613.06;5078529;27;46176;-78
2022/11/12 02:55:27;;;;;;;;;30.00;25.75;;;;;10.06;73.43;102616.50;5078557;28;45261;-78
2022/11/12 02:57:57;;;;;;;;;33.25;28.25;;;;;10.04;73.54;102619.09;5077623;27;66979;-78
2022/11/12 03:00:22;;;;;;;;;32.50;28.00;;;;;10.03;73.35;102613.91;5060512;28;45380;-78
2022/11/12 03:03:00;;;;;;;;;36.75;25.75;;;;;10.00;73.49;102616.50;5077533;27;45563;-76
2022/11/12 03:05:30;;;;;;;;;43.00;33.25;;;;;9.97;73.93;102616.47;5077186;28;46507;-78
2022/11/12 03:07:59;;;;;;;;;34.75;29.50;;;;;9.93;73.67;102607.78;5078244;28;45383;-77
2022/11/12 03:10:26;;;;;;;;;34.00;26.50;;;;;9.97;73.86;102617.34;5060233;27;45339;-78
2022/11/12 03:12:52;;;;;;;;;40.50;26.25;;;;;9.96;73.96;102610.41;5078418;28;45352;-78
2022/11/12 03:15:18;;;;;;;;;40.00;31.50;;;;;9.99;73.74;102612.16;5078227;28;45521;-78
2022/11/12 03:17:43;;;;;;;;;38.75;27.25;;;;;9.99;73.33;102601.75;5077572;27;45310;-77
2022/11/12 03:20:10;;;;;;;;;38.00;25.50;;;;;9.99;73.30;102596.53;5060091;28;45441;-78
2022/11/12 03:22:35;;;;;;;;;30.25;20.25;;;;;9.97;73.60;102603.47;5060190;28;45449;-78
2022/11/12 03:25:01;;;;;;;;;31.25;29.50;;;;;9.93;73.80;102605.19;5078074;28;45630;-78
2022/11/12 03:27:26;;;;;;;;;32.25;25.25;;;;;9.93;73.90;102604.31;5077626;27;55782;-78
2022/11/12 03:29:51;;;;;;;;;36.25;30.50;;;;;9.88;74.00;102599.97;5059041;28;66826;-77
2022/11/12 03:32:17;;;;;;;;;30.75;23.25;;;;;9.87;73.80;102598.22;5076814;27;68367;-77
2022/11/12 03:34:42;;;;;;;;;32.25;24.00;;;;;9.89;73.90;102606.91;5077204;28;70809;-78
2022/11/12 03:37:08;;;;;;;;;37.25;28.00;;;;;9.83;74.22;102595.63;5077659;28;45269;-78
2022/11/12 03:39:34;;;;;;;;;38.50;29.75;;;;;9.84;73.82;102598.25;5077896;27;45341;-77
2022/11/12 03:41:59;;;;;;;;;22.50;19.00;;;;;9.86;74.03;102595.63;5076672;28;45346;-78
2022/11/12 03:44:25;;;;;;;;;33.00;23.25;;;;;9.84;74.06;102586.94;5076878;28;69835;-78
2022/11/12 03:46:50;;;;;;;;;25.50;20.00;;;;;9.82;74.08;102594.75;5076613;28;66104;-78
2022/11/12 03:49:15;;;;;;;;;30.50;26.25;;;;;9.83;73.78;102593.03;5059077;28;52570;-77
2022/11/12 03:51:41;;;;;;;;;23.00;21.75;;;;;9.82;73.78;102596.47;5076844;27;65999;-78
2022/11/12 03:54:06;;;;;;;;;25.50;23.75;;;;;9.83;73.99;102601.69;5076668;28;74626;-78
2022/11/12 03:56:31;;;;;;;;;25.50;19.50;;;;;9.80;73.37;102601.66;5077527;28;45340;-78
2022/11/12 03:58:57;;;;;;;;;31.75;23.00;;;;;9.82;73.59;102605.13;5076806;27;64667;-78
2022/11/12 04:01:22;;;;;;;;;28.25;22.50;;;;;9.80;74.07;102608.63;5076870;28;59264;-78
2022/11/12 04:03:47;;;;;;;;;28.00;20.50;;;;;9.80;74.03;102609.47;5058343;28;69122;-78
2022/11/12 04:08:56;;;;;;;;;27.50;19.25;;;;;9.81;73.64;102603.41;5077510;27;45408;-78
2022/11/12 04:11:22;;;;;;;;;24.75;17.75;;;;;9.80;74.04;102606.00;5058448;28;66422;-78
2022/11/12 04:13:47;;;;;;;;;29.50;21.00;;;;;9.78;73.74;102603.41;5074858;28;74282;-78
2022/11/12 04:22:08;;;;;;;;;20.25;17.25;;;;;9.78;74.15;102625.94;5061798;28;45351;-78
2022/11/12 04:27:31;;;;;;;;;23.25;17.50;;;;;9.76;74.15;102625.94;5061719;28;45424;-78
2022/11/12 04:30:15;;;;;;;;;23.00;18.00;;;;;9.71;73.83;102609.44;5076735;28;45340;-77
2022/11/12 04:32:55;;;;;;;;;26.75;17.50;;;;;9.71;74.28;102614.63;5076163;28;45250;-78
2022/11/12 04:35:22;;;;;;;;;27.00;18.50;;;;;9.67;74.30;102612.88;5059125;28;46240;-78
2022/11/12 04:37:48;;;;;;;;;22.25;18.00;;;;;9.68;74.48;102614.63;5076717;27;45346;-78
2022/11/12 04:45:51;;;;;;;;;30.50;22.75;;;;;9.68;74.37;102612.91;5076301;28;45923;-78
2022/11/12 04:48:17;;;;;;;;;29.00;19.50;;;;;9.67;74.37;102613.75;5058496;28;45366;-78
2022/11/12 04:50:47;;;;;;;;;32.00;23.00;;;;;9.66;74.51;102604.22;5076979;28;45471;-78
2022/11/12 04:53:13;;;;;;;;;24.25;18.00;;;;;9.65;74.63;102604.22;5076832;28;45322;-78
2022/11/12 04:55:38;;;;;;;;;24.50;22.75;;;;;9.64;74.24;102602.50;5076543;28;47095;-78
2022/11/12 04:58:03;;;;;;;;;24.25;17.50;;;;;9.66;74.57;102601.63;5076487;27;45354;-78
2022/11/12 05:00:29;;;;;;;;;24.00;16.50;;;;;9.64;74.60;102600.75;5076464;28;45392;-78
2022/11/12 05:02:54;;;;;;;;;22.75;17.75;;;;;9.66;74.36;102608.56;5076593;28;45392;-78
2022/11/12 05:05:20;;;;;;;;;24.00;18.75;;;;;9.63;74.56;102606.81;5075676;28;74926;-78
2022/11/12 05:07:45;;;;;;;;;22.75;17.75;;;;;9.62;74.86;102601.59;5075000;28;70265;-78
2022/11/12 05:10:10;;;;;;;;;22.00;15.75;;;;;9.61;74.96;102608.53;5075323;27;68674;-78
2022/11/12 05:12:36;;;;;;;;;22.75;19.00;;;;;9.61;74.52;102597.25;5076652;27;45412;-78
2022/11/12 05:15:02;;;;;;;;;18.00;16.50;;;;;9.61;75.25;102613.72;5057727;28;46387;-77
2022/11/12 05:17:27;;;;;;;;;20.75;19.00;;;;;9.60;74.83;102604.19;5058036;28;45468;-78
2022/11/12 05:19:52;;;;;;;;;24.50;18.25;;;;;9.61;74.50;102603.31;5076511;28;45346;-78
2022/11/12 05:22:18;;;;;;;;;22.00;18.50;;;;;9.62;74.44;102599.88;5075388;28;69156;-78
2022/11/12 05:24:43;;;;;;;;;21.00;17.25;;;;;9.65;74.91;102606.81;5075289;28;76046;-78
2022/11/12 05:27:18;;;;;;;;;20.50;15.00;;;;;9.65;74.90;102612.00;5076169;28;45304;-78
2022/11/12 05:29:43;;;;;;;;;20.25;16.25;;;;;9.67;74.82;102611.16;5074776;28;45349;-78
2022/11/12 05:32:14;;;;;;;;;23.00;18.25;;;;;9.69;74.62;102605.97;5058206;28;46144;-78
2022/11/12 05:34:40;;;;;;;;;22.75;18.00;;;;;9.69;74.63;102612.06;5074818;28;46284;-78
2022/11/12 05:37:07;;;;;;;;;23.25;16.50;;;;;9.69;74.55;102612.06;5075916;28;45511;-77
2022/11/12 05:39:33;;;;;;;;;22.75;19.00;;;;;9.67;74.88;102611.16;5076129;28;45382;-78
2022/11/12 05:41:58;;;;;;;;;20.00;18.00;;;;;9.71;74.37;102612.03;5076015;27;45622;-78
2022/11/12 05:44:23;;;;;;;;;21.75;16.50;;;;;9.70;74.51;102607.72;5074621;28;75525;-78
2022/11/12 05:46:52;;;;;;;;;18.75;15.25;;;;;9.72;74.53;102607.72;5074980;28;73314;-78
2022/11/12 05:49:17;;;;;;;;;14.50;13.25;;;;;9.72;74.59;102611.19;5058309;28;45343;-78
2022/11/12 05:51:43;;;;;;;;;18.00;15.00;;;;;9.76;74.95;102612.94;5076010;28;45270;-78
2022/11/12 05:54:09;;;;;;;;;19.00;17.00;;;;;9.75;74.66;102594.72;5057795;28;46431;-78
2022/11/12 05:56:35;;;;;;;;;15.25;14.25;;;;;9.80;74.61;102603.41;5075863;28;45440;-78
2022/11/12 05:59:01;;;;;;;;;20.00;14.50;;;;;9.80;74.55;102601.66;5057440;28;45364;-78
2022/11/12 06:01:26;;;;;;;;;22.75;15.00;;;;;9.81;74.84;102612.97;5076106;28;45386;-78
2022/11/12 06:03:52;;;;;;;;;18.75;13.75;;;;;9.81;74.28;102612.97;5075586;28;47112;-78
2022/11/12 06:06:17;;;;;;;;;18.25;14.00;;;;;9.80;74.62;102611.22;5075150;27;57966;-78
2022/11/12 06:08:43;;;;;;;;;21.00;15.50;;;;;9.79;74.34;102614.69;5075762;27;45383;-78
2022/11/12 06:11:08;;;;;;;;;16.00;13.00;;;;;9.80;74.83;102619.00;5075057;28;57682;-78
2022/11/12 06:13:34;;;;;;;;;20.00;13.25;;;;;9.81;74.66;102613.81;5075204;28;46132;-78
2022/11/12 06:15:59;;;;;;;;;17.25;15.50;;;;;9.79;74.25;102614.69;5075759;28;45427;-78
2022/11/12 06:18:24;;;;;;;;;14.25;11.00;;;;;9.78;74.20;102612.94;5074595;27;67601;-78
2022/11/12 06:23:33;;;;;;;;;17.00;13.75;;;;;9.73;74.42;102615.50;5079126;27;45379;-78
2022/11/12 06:25:59;;;;;;;;;15.00;12.75;;;;;9.71;74.61;102614.63;5078021;27;65442;-77
2022/11/12 06:28:24;;;;;;;;;21.25;14.50;;;;;9.72;74.36;102607.72;5060955;28;45518;-78
2022/11/12 06:30:50;;;;;;;;;19.25;12.25;;;;;9.67;74.71;102597.28;5079116;28;45386;-78
2022/11/12 06:33:15;;;;;;;;;15.75;14.25;;;;;9.64;74.37;102611.16;5059879;28;74733;-77
2022/11/12 06:35:40;;;;;;;;;15.75;13.50;;;;;9.63;74.16;102616.34;5078896;28;45423;-77
2022/11/12 06:38:06;;;;;;;;;20.00;15.00;;;;;9.56;74.33;102612.81;5059880;28;63237;-78
2022/11/12 06:40:31;;;;;;;;;24.50;17.00;;;;;9.56;74.81;102612.81;5059450;28;65513;-77
2022/11/12 06:42:57;;;;;;;;;13.50;13.25;;;;;9.56;74.26;102612.81;5059524;28;75692;-77
2022/11/12 06:45:23;;;;;;;;;18.25;12.50;;;;;9.51;74.82;102617.16;5078854;27;45341;-78
2022/11/12 06:47:48;;;;;;;;;17.75;15.00;;;;;9.50;74.51;102621.47;5060687;28;45629;-78
2022/11/12 06:50:14;;;;;;;;;16.00;15.00;;;;;9.50;75.03;102631.00;5077872;28;63495;-78
2022/11/12 06:52:39;;;;;;;;;20.75;14.25;;;;;9.49;74.76;102639.69;5077223;28;47333;-78
2022/11/12 06:55:04;;;;;;;;;21.00;11.00;;;;;9.48;74.89;102636.19;5078242;27;45352;-77
2022/11/12 06:57:30;;;;;;;;;19.00;12.00;;;;;9.46;74.52;102637.03;5078642;28;45277;-78
2022/11/12 06:59:55;;;;;;;;;21.75;15.25;;;;;9.45;74.79;102631.00;5078529;28;45352;-77
2022/11/12 07:02:20;;;;;;;;;17.75;17.75;;;;;9.46;74.83;102635.31;5078351;27;46620;-78
2022/11/12 07:04:46;;;;;;;;;14.50;13.75;;;;;9.44;74.74;102625.78;5078594;27;45308;-78
2022/11/12 07:07:11;;;;;;;;;15.50;14.00;;;;;9.48;75.08;102632.72;5077805;28;61544;-78
2022/11/12 07:09:36;;;;;;;;;18.75;13.75;;;;;9.48;75.05;102636.19;5076900;27;67350;-78
2022/11/12 07:12:02;;;;;;;;;20.00;15.50;;;;;9.46;74.66;102624.06;5059256;28;72186;-78
2022/11/12 07:14:27;;;;;;;;;18.00;15.50;;;;;9.47;75.29;102625.78;5060113;28;47439;-78
2022/11/12 07:16:52;;;;;;;;;21.75;16.75;;;;;9.44;74.89;102628.38;5077276;27;68116;-78
2022/11/12 07:19:18;;;;;;;;;16.75;14.25;;;;;9.43;75.28;102630.09;5077801;28;56369;-78
2022/11/12 07:21:43;;;;;;;;;21.50;18.25;;;;;9.43;75.35;102632.69;5078012;28;45909;-77
2022/11/12 07:24:08;;;;;;;;;16.25;12.25;;;;;9.46;75.11;102639.66;5077245;27;61462;-78
2022/11/12 07:26:34;;;;;;;;;15.00;12.25;;;;;9.44;75.22;102631.84;5077640;28;63038;-78
2022/11/12 07:28:59;;;;;;;;;17.25;14.00;;;;;9.49;75.39;102645.72;5077170;28;68537;-78
2022/11/12 07:31:24;;;;;;;;;21.50;14.25;;;;;9.49;75.10;102640.53;5059686;28;46100;-78
2022/11/12 07:33:50;;;;;;;;;18.50;13.75;;;;;9.54;74.90;102647.47;5059769;28;45288;-77
2022/11/12 07:36:17;;;;;;;;;22.75;18.50;;;;;9.57;75.30;102657.91;5077390;28;59626;-78
2022/11/12 07:38:43;;;;;;;;;17.75;14.75;;;;;9.58;75.49;102660.50;5076374;28;45286;-78
2022/11/12 07:41:08;;;;;;;;;21.50;14.00;;;;;9.61;75.16;102660.53;5077606;28;45448;-77
2022/11/12 07:43:35;;;;;;;;;13.00;13.00;;;;;9.62;75.49;102659.69;5077854;28;45371;-77
2022/11/12 07:46:02;;;;;;;;;19.50;16.00;;;;;9.64;75.76;102663.16;5059821;28;45434;-78
2022/11/12 07:48:28;;;;;;;;;27.50;19.50;;;;;9.65;75.27;102661.41;5077702;28;45369;-78
2022/11/12 07:51:01;;;;;;;;;18.25;13.50;;;;;9.68;75.33;102651.91;5076297;27;45601;-77
2022/11/12 07:53:27;;;;;;;;;29.25;17.00;;;;;9.72;75.01;102663.19;5077315;27;45926;-78
2022/11/12 07:55:54;;;;;;;;;25.00;16.00;;;;;9.74;75.32;102650.22;5076490;28;45404;-78
2022/11/12 07:58:20;;;;;;;;;21.75;15.75;;;;;9.74;75.06;102653.66;5059515;28;45414;-78
2022/11/12 08:00:45;;;;;;;;;18.25;13.00;;;;;9.79;75.24;102667.56;5077459;28;47252;-78
2022/11/12 08:03:10;;;;;;;;;18.50;14.25;;;;;9.83;75.27;102669.31;5058739;28;63836;-78
2022/11/12 08:05:36;;;;;;;;;17.25;17.25;;;;;9.86;74.88;102671.94;5076561;28;68543;-77
2022/11/12 08:08:01;;;;;;;;;19.75;16.00;;;;;9.93;74.75;102669.38;5077107;27;45230;-77
2022/11/12 08:10:26;;;;;;;;;17.75;16.25;;;;;9.95;75.13;102673.69;5076498;27;67661;-77
2022/11/12 08:12:54;;;;;;;;;22.00;18.00;;;;;9.99;74.78;102672.88;5076489;28;68908;-78
2022/11/12 08:15:20;;;;;;;;;23.00;15.00;;;;;10.00;74.66;102673.75;5077450;27;45320;-78
2022/11/12 08:17:45;;;;;;;;;21.25;18.00;;;;;10.08;74.75;102680.72;5076473;27;59440;-78
2022/11/12 08:20:11;;;;;;;;;19.50;16.25;;;;;10.08;74.79;102678.13;5058103;28;75563;-78
2022/11/12 08:22:37;;;;;;;;;23.00;18.50;;;;;10.12;74.49;102681.56;5076794;28;45399;-77
2022/11/12 08:25:02;;;;;;;;;22.00;19.00;;;;;10.15;74.75;102681.59;5076389;28;66425;-78
2022/11/12 08:27:27;;;;;;;;;19.75;15.75;;;;;10.17;74.61;102687.69;5077311;27;45476;-78
2022/11/12 08:29:53;;;;;;;;;19.75;14.00;;;;;10.18;74.70;102696.38;5076801;27;52442;-78
2022/11/12 08:32:18;;;;;;;;;24.25;18.25;;;;;10.22;74.81;102696.38;5057911;28;70639;-77
2022/11/12 08:34:43;;;;;;;;;23.75;17.00;;;;;10.28;74.94;102695.53;5076152;28;66916;-78
2022/11/12 08:37:09;;;;;;;;;23.25;20.50;;;;;10.31;74.33;102689.47;5075935;28;58272;-77
2022/11/12 08:39:34;;;;;;;;;23.25;17.75;;;;;10.34;74.39;102700.78;5076154;28;65153;-77
2022/11/12 08:41:59;;;;;;;;;20.50;17.25;;;;;10.38;74.78;102699.94;5075732;28;73105;-77
2022/11/12 08:44:25;;;;;;;;;24.50;20.00;;;;;10.43;74.23;102703.41;5075183;28;67610;-78
2022/11/12 08:46:50;;;;;;;;;28.00;17.00;;;;;10.44;74.53;102693.88;5076154;28;57563;-78
2022/11/12 08:49:15;;;;;;;;;21.00;18.00;;;;;10.51;74.13;102706.06;5058725;28;45423;-78
2022/11/12 08:51:41;;;;;;;;;25.00;16.75;;;;;10.54;74.34;102693.03;5075522;28;71514;-78
2022/11/12 08:54:06;;;;;;;;;24.00;19.25;;;;;10.58;74.40;102692.16;5075823;27;67615;-77
2022/11/12 08:56:32;;;;;;;;;20.75;19.25;;;;;10.62;74.15;102693.94;5076063;28;61222;-78
2022/11/12 08:58:58;;;;;;;;;22.50;19.25;;;;;10.65;73.86;102685.25;5076553;28;45527;-78
2022/11/12 09:01:25;;;;;;;;;28.00;20.25;;;;;10.69;74.03;102684.38;5076698;27;45411;-78
2022/11/12 09:03:50;;;;;;;;;24.50;19.25;;;;;10.72;74.11;102691.34;5076376;28;52130;-78
2022/11/12 09:06:16;;;;;;;;;24.75;22.25;;;;;10.73;73.83;102680.91;5076284;28;45372;-78
2022/11/12 09:08:41;;;;;;;;;25.25;20.75;;;;;10.76;73.96;102682.66;5075731;28;66687;-78
2022/11/12 09:11:06;;;;;;;;;25.75;19.00;;;;;10.80;74.25;102679.19;5057456;28;66010;-78
2022/11/12 09:13:32;;;;;;;;;21.75;19.75;;;;;10.87;74.22;102686.16;5075745;28;64572;-78
2022/11/12 09:16:03;;;;;;;;;26.25;17.25;;;;;10.93;73.99;102680.06;5076485;28;45357;-78
2022/11/12 09:18:29;;;;;;;;;27.00;20.00;;;;;10.94;74.11;102676.59;5059651;28;48615;-78
2022/11/12 09:21:04;;;;;;;;;25.75;18.50;;;;;11.03;73.65;102690.50;5074703;28;45396;-78
2022/11/12 09:23:30;;;;;;;;;22.75;21.25;;;;;11.08;73.59;102687.88;5076245;27;45411;-78
2022/11/12 09:25:56;;;;;;;;;19.75;15.75;;;;;11.14;73.62;102685.28;5075617;28;69233;-78
2022/11/12 09:28:22;;;;;;;;;23.25;20.25;;;;;11.19;74.19;102686.16;5057873;28;46212;-77
2022/11/12 09:30:49;;;;;;;;;21.00;12.50;;;;;11.24;73.69;102696.59;5075286;27;70248;-78
2022/11/12 09:33:16;;;;;;;;;31.50;22.75;;;;;11.29;73.59;102693.97;5058364;28;45403;-78
2022/11/12 09:35:42;;;;;;;;;25.50;22.25;;;;;11.35;73.60;102687.03;5075876;27;45352;-78
2022/11/12 09:38:08;;;;;;;;;25.00;21.50;;;;;11.43;73.06;102689.63;5057709;28;45356;-78
2022/11/12 09:40:39;;;;;;;;;23.75;20.50;;;;;11.51;73.47;102682.63;5074876;28;73168;-78
2022/11/12 09:43:19;;;;;;;;;29.50;22.25;;;;;11.58;73.27;102678.28;5074933;28;45542;-78
2022/11/12 09:45:45;;;;;;;;;25.50;20.50;;;;;11.65;73.00;102674.81;5076075;28;45382;-78
2022/11/12 09:48:17;;;;;;;;;28.25;22.50;;;;;11.72;72.83;102675.63;5056507;28;75891;-78
2022/11/12 09:50:59;;;;;;;;;30.25;23.50;;;;;11.78;72.64;102676.50;5057512;28;45343;-78
2022/11/12 09:53:39;;;;;;;;;23.75;22.25;;;;;11.88;72.63;102684.28;5057868;28;45348;-78
2022/11/12 09:56:06;;;;;;;;;32.00;23.50;;;;;11.97;72.34;102693.00;5061373;28;45415;-77
2022/11/12 09:58:32;;;;;;;;;35.50;27.00;;;;;12.08;72.73;102689.47;5061200;28;45686;-78
2022/11/12 10:01:02;;;;;;;;;34.25;25.00;;;;;12.19;72.12;102698.13;5078412;27;69333;-77
2022/11/12 10:03:55;;;;;;;;;35.50;24.75;;;;;12.31;71.76;102702.41;5061197;28;45383;-77
2022/11/12 10:06:22;;;;;;;;;32.25;25.00;;;;;12.38;71.68;102698.91;5079511;28;45369;-78
2022/11/12 10:09:01;;;;;;;;;34.50;26.00;;;;;12.50;71.54;102706.69;5061049;28;46392;-78
2022/11/12 10:14:54;;;;;;;;;37.50;28.00;;;;;12.78;70.79;102704.78;5079486;27;45456;-78
2022/11/12 10:17:19;;;;;;;;;31.00;28.50;;;;;12.91;70.77;102699.47;5060875;28;45491;-77
2022/11/12 10:19:57;;;;;;;;;31.00;24.00;;;;;13.01;70.74;102695.03;5060632;28;46417;-78
2022/11/12 10:22:57;;;;;;;;;36.50;26.75;;;;;13.12;70.19;102687.97;5078969;27;45942;-78
2022/11/12 10:25:23;;;;;;;;;35.25;27.75;;;;;13.20;70.12;102690.50;5061263;28;45545;-78
2022/11/12 10:27:54;;;;;;;;;35.50;23.25;;;;;13.29;70.12;102688.66;5077856;28;45539;-77
2022/11/12 10:30:22;;;;;;;;;34.00;25.25;;;;;13.38;70.00;102681.66;5078812;28;47268;-78
2022/11/12 10:32:48;;;;;;;;;35.50;26.75;;;;;13.46;69.48;102675.47;5078580;28;45380;-78
2022/11/12 10:35:16;;;;;;;;;34.50;30.75;;;;;13.57;69.13;102675.34;5077862;28;45337;-78
2022/11/12 10:37:52;;;;;;;;;30.25;25.25;;;;;13.73;69.61;102665.59;5077596;27;45282;-78
2022/11/12 10:40:21;;;;;;;;;32.00;26.00;;;;;13.86;69.21;102663.72;5060427;28;46474;-78
2022/11/12 10:43:01;;;;;;;;;32.00;28.25;;;;;14.01;69.09;102670.50;5078855;28;45352;-78
2022/11/12 10:45:27;;;;;;;;;31.75;26.50;;;;;14.22;69.16;102667.59;5079005;27;45344;-78
2022/11/12 10:47:54;;;;;;;;;34.75;27.75;;;;;14.52;68.33;102663.69;5078373;28;45382;-78
2022/11/12 10:50:29;;;;;;;;;33.00;23.00;;;;;14.94;67.86;102678.81;5078431;28;46282;-78
2022/11/12 10:53:00;;;;;;;;;27.75;25.25;;;;;15.47;67.11;102679.63;5060470;28;45795;-78
2022/11/12 10:55:28;;;;;;;;;28.75;25.00;;;;;16.16;65.41;102680.03;5078803;28;45348;-78
2022/11/12 10:58:09;;;;;;;;;24.75;20.50;;;;;17.11;64.85;102674.34;5060555;27;45495;-78
2022/11/12 11:00:35;;;;;;;;;27.25;20.00;;;;;18.10;64.47;102654.06;5078282;28;46607;-78
2022/11/12 11:03:05;;;;;;;;;30.50;22.25;;;;;19.11;61.79;102657.91;5060116;28;45434;-78
2022/11/12 11:05:34;;;;;;;;;30.25;24.00;;;;;20.07;60.62;102644.72;5078335;28;45419;-78
2022/11/12 11:08:00;;;;;;;;;33.25;25.50;;;;;21.05;58.22;102647.84;5078307;28;45373;-78
2022/11/12 11:10:34;;;;;;;;;26.50;25.75;;;;;22.06;56.39;102633.59;5060117;28;46195;-78
2022/11/12 11:13:19;;;;;;;;;21.75;20.00;;;;;22.82;54.26;102630.81;5060178;28;45885;-78
2022/11/12 11:16:04;;;;;;;;;31.00;22.50;;;;;23.09;52.38;102625.91;5078523;28;45349;-78
2022/11/12 11:18:32;;;;;;;;;34.50;21.75;;;;;23.52;51.65;102636.06;5078142;27;45518;-78
2022/11/12 11:21:20;;;;;;;;;27.00;24.75;;;;;24.14;50.17;102633.56;5076845;28;47228;-78
2022/11/12 11:23:56;;;;;;;;;23.75;21.25;;;;;24.53;49.12;102630.47;5059841;28;45396;-78
2022/11/12 11:26:28;;;;;;;;;25.25;22.75;;;;;24.97;47.90;102618.09;5060106;27;45442;-78
2022/11/12 11:29:06;;;;;;;;;30.50;25.00;;;;;25.28;46.95;102613.63;5059907;27;45349;-78
2022/11/12 11:31:39;;;;;;;;;29.25;25.25;;;;;25.54;46.36;102603.09;5059954;28;47145;-78
2022/11/12 11:34:30;;;;;;;;;26.00;24.75;;;;;25.81;45.10;102605.84;5042933;28;45882;-78
2022/11/12 11:37:07;;;;;;;;;26.25;24.25;;;;;25.76;44.51;102602.59;5073666;27;45265;-78